Latest Weather Observations for Warwick

IDQ60901

Issued at 9:51 am EST Wednesday 24 July 2024 (issued every 10 minutes, with the page automatically refreshed every 10 minutes)

About weather observations | Map of Brisbane area stations | Latest observations for Brisbane area | Other Formats
Station Details ID: 041525 Name: WARWICK Lat: -28.21 Lon: 152.10 Height: 475.4 m
Data from the previous 72 hours. | See also: Recent months at Warwick
Date/Time
EST
Temp
°C
App
Temp
°C
Dew
Point
°C
Rel
Hum
%
Delta-T
°C
Wind Press
QNH
hPa
Press
MSL
hPa
Rain since
9am
mm
Dir  Spd
km/h
Gust
km/h
Spd
kts
Gust
kts
24/09:30am 8.4 7.6 8.3 99 0.0 ENE 2 7 1 4 1027.3 1027.5 0.0
24/09:00am 7.9 6.3 7.8 99 0.0 E 6 7 3 4 1027.5 1027.7 0.0
24/08:30am 7.6 7.0 7.5 99 0.0 CALM 0 0 0 0 1027.5 1027.7 0.0
24/08:00am 6.3 4.1 6.2 99 0.0 ENE 7 9 4 5 1027.3 1027.5 0.0
24/07:30am 5.9 4.2 5.8 99 0.0 NE 4 9 2 5 1027.0 1027.2 0.0
24/07:00am 5.3 3.1 5.2 99 0.0 ENE 6 7 3 4 1026.8 1026.9 0.0
24/06:30am 6.0 3.7 5.9 99 0.0 NE 7 9 4 5 1026.4 1026.5 0.0
24/06:00am 6.2 3.6 6.1 99 0.0 NE 9 11 5 6 1026.0 1026.2 0.0
24/05:30am 6.8 4.9 6.7 99 0.0 NE 6 9 3 5 1025.8 1026.0 0.0
24/05:00am 7.1 5.1 7.0 99 0.0 NE 7 13 4 7 1025.5 1025.7 0.0
24/04:30am 7.3 4.9 7.2 99 0.0 NE 9 13 5 7 1025.4 1025.6 0.0
24/04:00am 7.5 5.6 7.4 99 0.0 NNE 7 13 4 7 1025.7 1025.9 0.0
24/03:30am 6.8 5.3 6.7 99 0.0 NE 4 9 2 5 1025.8 1026.0 0.0
24/03:00am 3.6 2.1 3.2 97 0.2 CALM 0 0 0 0 1025.8 1026.0 0.0
24/02:30am 3.5 1.9 2.3 92 0.5 CALM 0 0 0 0 1025.9 1026.1 0.0
24/02:00am 4.8 2.2 4.1 95 0.3 NNE 7 11 4 6 1026.2 1026.3 0.0
24/01:30am 3.3 -0.1 2.0 91 0.5 NE 9 13 5 7 1026.2 1026.3 0.0
24/01:00am 6.7 5.2 4.9 88 0.8 NE 2 6 1 3 1026.4 1026.5 0.0
24/12:30am 7.5 5.1 4.1 79 1.5 NE 6 9 3 5 1026.5 1026.6 0.0
24/12:00am 7.0 4.5 4.5 84 1.1 NE 7 9 4 5 1026.5 1026.6 0.0
 
Date/Time
EST
Temp
°C
App
Temp
°C
Dew
Point
°C
Rel
Hum
%
Delta-T
°C
Wind Press
QNH
hPa
Press
MSL
hPa
Rain since
9am
mm
Dir  Spd
km/h
Gust
km/h
Spd
kts
Gust
kts
23/11:30pm 8.2 5.9 5.0 80 1.5 NNE 6 7 3 4 1026.5 1026.6 0.0
23/11:00pm 7.6 6.5 5.1 84 1.1 CALM 0 0 0 0 1026.5 1026.6 0.0
23/10:30pm 6.9 5.6 4.2 83 1.2 CALM 0 0 0 0 1026.4 1026.5 0.0
23/10:00pm 8.0 7.0 5.5 84 1.1 CALM 0 0 0 0 1026.5 1026.6 0.0
23/09:30pm 7.5 5.0 3.9 78 1.6 NNE 6 7 3 4 1026.3 1026.4 0.0
23/09:00pm 7.6 6.2 3.8 77 1.7 CALM 0 0 0 0 1026.4 1026.5 0.0
23/08:30pm 7.5 6.0 3.2 74 1.9 CALM 0 0 0 0 1026.3 1026.4 0.0
23/08:00pm 8.6 7.1 3.0 68 2.4 CALM 0 0 0 0 1025.9 1026.1 0.0
23/07:30pm 7.2 5.7 3.1 75 1.8 CALM 0 0 0 0 1025.6 1025.8 0.0
23/07:16pm 6.7 4.0 0.4 64 2.5 SW 4 7 2 4 1025.5 1025.7 0.0
23/07:00pm 11.7 8.5 3.2 56 3.8 NNE 9 11 5 6 1025.4 1025.6 0.0
23/06:30pm 10.1 7.1 1.0 53 3.9 N 6 11 3 6 1025.1 1025.2 0.0
23/06:00pm 10.8 9.0 1.1 51 4.1 CALM 0 0 0 0 1025.0 1025.1 0.0
23/05:30pm 12.3 10.6 1.6 48 4.7 CALM 0 0 0 0 1024.7 1024.8 0.0
23/05:00pm 13.9 12.2 1.9 44 5.3 CALM 0 0 0 0 1024.5 1024.6 0.0
23/04:30pm 18.6 16.2 2.4 34 7.6 SW 4 9 2 5 1024.4 1024.5 0.0
23/04:00pm 19.4 16.6 2.3 32 8.0 W 6 9 3 5 1024.3 1024.4 0.0
23/03:30pm 19.1 16.0 1.6 31 8.1 SSW 7 13 4 7 1024.3 1024.4 0.0
23/03:00pm 19.4 16.6 1.9 31 8.2 WNW 6 13 3 7 1024.4 1024.5 0.0
23/02:30pm 19.0 15.5 1.1 30 8.2 W 9 15 5 8 1024.4 1024.5 0.0
23/02:00pm 19.0 16.0 2.0 32 7.9 NE 7 13 4 7 1024.6 1024.7 0.0
23/01:30pm 18.6 15.3 2.4 34 7.6 WSW 9 17 5 9 1024.9 1025.0 0.0
23/01:00pm 18.7 15.3 2.1 33 7.7 WSW 9 17 5 9 1025.4 1025.6 0.0
23/12:30pm 18.7 15.5 3.3 36 7.4 N 9 13 5 7 1025.9 1026.1 0.0
23/12:00pm 17.8 14.8 2.2 35 7.2 E 7 13 4 7 1026.4 1026.5 0.0
23/11:30am 17.0 14.5 5.0 45 5.9 E 7 9 4 5 1027.0 1027.2 0.0
23/11:00am 15.3 13.0 4.7 49 5.1 SW 6 7 3 4 1027.5 1027.7 0.0
23/10:30am 13.4 12.1 4.3 54 4.3 CALM 0 0 0 0 1027.9 1028.1 0.0
23/10:00am 11.6 10.3 4.3 61 3.4 CALM 0 0 0 0 1028.4 1028.5 0.0
23/09:30am 10.6 9.4 4.5 66 2.8 CALM 0 0 0 0 1028.6 1028.7 0.0
23/09:00am 8.2 5.7 3.5 72 2.1 NE 6 7 3 4 1028.6 1028.7 0.0
23/08:30am 5.3 3.3 2.5 82 1.2 ENE 2 7 1 4 1028.5 1028.6 0.0
23/08:00am 2.7 0.8 0.4 85 0.9 CALM 0 0 0 0 1028.5 1028.6 0.0
23/07:30am -1.6 -4.0 -2.9 91 0.4 CALM 0 0 0 0 1028.2 1028.4 0.0
23/07:00am -1.6 -3.9 -2.3 95 0.2 CALM 0 0 0 0 1027.9 1028.1 0.0
23/06:30am -2.2 -4.6 -3.0 94 0.2 CALM 0 0 0 0 1027.4 1027.6 0.0
23/06:00am -2.5 -4.9 -3.2 95 0.1 CALM 0 0 0 0 1027.2 1027.4 0.0
23/05:30am -1.9 -4.3 -3.0 92 0.3 CALM 0 0 0 0 1026.7 1026.8 0.0
23/05:00am -2.3 -4.8 -3.9 89 0.4 CALM 0 0 0 0 1026.6 1026.7 0.0
23/04:30am -1.3 -3.5 -1.9 96 0.1 CALM 0 0 0 0 1026.5 1026.6 0.0
23/04:00am -1.0 -3.3 -2.3 91 0.4 CALM 0 6 0 3 1026.4 1026.5 0.0
23/03:30am -1.3 -3.6 -2.3 93 0.3 CALM 0 0 0 0 1026.6 1026.7 0.0
23/03:00am -1.7 -4.4 -2.5 94 0.2 W 2 7 1 4 1026.6 1026.7 0.0
23/02:30am 0.1 -2.1 -1.6 88 0.6 CALM 0 0 0 0 1026.4 1026.5 0.0
23/02:00am 0.2 -3.3 -1.1 91 0.5 NE 7 11 4 6 1026.5 1026.6 0.0
23/01:30am 0.2 -2.0 -1.9 86 0.8 CALM 0 0 0 0 1026.9 1027.0 0.0
23/01:00am 0.7 -1.4 -0.6 91 0.5 CALM 0 0 0 0 1026.9 1027.0 0.0
23/12:30am 0.8 -1.4 -1.6 84 0.9 CALM 0 0 0 0 1027.0 1027.2 0.0
23/12:00am 1.3 -0.8 -0.5 88 0.7 CALM 0 0 0 0 1027.1 1027.3 0.0
 
Date/Time
EST
Temp
°C
App
Temp
°C
Dew
Point
°C
Rel
Hum
%
Delta-T
°C
Wind Press
QNH
hPa
Press
MSL
hPa
Rain since
9am
mm
Dir  Spd
km/h
Gust
km/h
Spd
kts
Gust
kts
22/11:30pm 2.6 0.5 -0.5 80 1.2 CALM 0 0 0 0 1026.8 1026.9 0.0
22/11:00pm 2.9 1.0 0.6 85 0.9 CALM 0 0 0 0 1027.0 1027.2 0.0
22/10:30pm 2.5 0.4 -0.6 80 1.2 CALM 0 0 0 0 1027.2 1027.4 0.0
22/10:00pm 3.8 1.7 -0.8 72 1.7 CALM 0 0 0 0 1027.1 1027.3 0.0
22/09:30pm 4.7 2.8 0.5 74 1.7 CALM 0 0 0 0 1026.9 1027.0 0.0
22/09:00pm 5.7 3.7 0.1 67 2.2 CALM 0 0 0 0 1026.7 1026.8 0.0
22/08:30pm 5.5 3.5 -0.1 67 2.2 CALM 0 0 0 0 1026.3 1026.4 0.0
22/08:00pm 7.6 5.7 0.3 60 2.9 CALM 0 0 0 0 1026.0 1026.2 0.0
22/07:30pm 6.8 3.4 -0.4 60 2.9 NE 7 9 4 5 1025.9 1026.1 0.0
22/07:00pm 6.2 4.0 -1.2 59 2.8 CALM 0 0 0 0 1025.5 1025.7 0.0
22/06:30pm 10.5 7.2 -0.9 45 4.6 NW 6 9 3 5 1025.1 1025.2 0.0
22/06:00pm 10.6 7.4 -0.2 47 4.5 NW 6 7 3 4 1024.8 1024.9 0.0
22/05:30pm 10.9 7.7 -0.5 45 4.7 NW 6 7 3 4 1024.6 1024.7 0.0
22/05:00pm 12.4 9.4 0.5 44 5.1 NW 6 7 3 4 1024.3 1024.4 0.0
22/04:30pm 17.5 14.8 0.2 31 7.7 W 4 9 2 5 1024.2 1024.3 0.0
22/04:00pm 17.8 14.5 0.0 30 7.9 W 7 11 4 6 1024.1 1024.2 0.0
22/03:30pm 17.9 14.6 0.1 30 7.9 WSW 7 13 4 7 1023.8 1024.0 0.0
22/03:00pm 18.2 15.1 0.4 30 8.0 W 6 17 3 9 1023.7 1023.9 0.0
22/02:30pm 18.1 14.5 0.3 30 8.0 WNW 9 15 5 8 1024.0 1024.1 0.0
22/02:00pm 17.8 14.4 -1.9 26 8.4 W 6 13 3 7 1024.2 1024.3 0.0
22/01:30pm 17.8 14.6 -0.5 29 8.1 W 6 17 3 9 1024.5 1024.6 0.0
22/01:00pm 17.3 13.6 0.0 31 7.6 WNW 9 13 5 7 1024.9 1025.0 0.0
22/12:30pm 17.1 13.6 -1.1 29 7.9 NNW 7 17 4 9 1025.3 1025.5 0.0
22/12:00pm 15.7 12.7 1.1 37 6.5 SSW 6 11 3 6 1025.8 1026.0 0.0
22/11:30am 14.7 12.6 1.9 42 5.8 SW 2 7 1 4 1026.3 1026.4 0.0
22/11:00am 14.2 12.4 3.4 48 5.0 NE 2 7 1 4 1026.9 1027.0 0.0
22/10:30am 11.7 9.9 3.2 56 3.8 SE 2 9 1 5 1027.3 1027.5 0.0
22/10:00am 9.4 7.1 2.9 64 2.8 S 4 7 2 4 1027.3 1027.5 0.0
22/09:30am 8.4 6.8 2.4 66 2.6 CALM 0 0 0 0 1027.4 1027.6 0.0
22/09:00am 5.6 4.0 2.3 79 1.4 CALM 0 0 0 0 1027.3 1027.5 0.0
22/08:30am 0.9 -1.0 0.3 96 0.2 CALM 0 0 0 0 1027.2 1027.4 0.0
22/08:00am -1.5 -3.7 -1.9 97 0.1 CALM 0 0 0 0 1027.0 1027.2 0.0
22/07:30am -3.3 -5.8 -3.7 97 0.0 CALM 0 0 0 0 1026.7 1026.8 0.0
22/07:00am -3.8 -6.3 -4.3 96 0.0 CALM 0 0 0 0 1026.0 1026.2 0.0
22/06:30am -3.1 -5.6 -3.8 95 0.1 CALM 0 0 0 0 1025.7 1025.9 0.0
22/06:00am -3.5 -7.4 -4.2 95 0.1 NE 7 11 4 6 1025.5 1025.7 0.0
22/05:30am -3.3 -5.8 -3.8 96 0.0 CALM 0 0 0 0 1025.0 1025.1 0.0
22/05:00am -3.2 -5.7 -4.0 94 0.1 CALM 0 0 0 0 1024.8 1024.9 0.0
22/04:30am -1.2 -3.4 -1.5 98 0.0 CALM 0 0 0 0 1024.4 1024.5 0.0
22/04:00am -2.0 -4.3 -2.4 97 0.0 CALM 0 0 0 0 1024.4 1024.5 0.0
22/03:30am -1.5 -3.7 -1.9 97 0.1 CALM 0 0 0 0 1024.2 1024.3 0.0
22/03:00am -2.2 -4.6 -2.9 95 0.1 CALM 0 0 0 0 1024.1 1024.2 0.0
22/02:30am -1.8 -4.2 -3.5 88 0.5 CALM 0 0 0 0 1024.1 1024.2 0.0
22/02:00am -0.8 -3.0 -1.6 94 0.2 CALM 0 0 0 0 1024.2 1024.3 0.0
22/01:30am -0.5 -2.7 -1.9 90 0.5 CALM 0 0 0 0 1024.0 1024.1 0.0
22/01:00am 0.1 -2.1 -1.2 91 0.5 CALM 0 0 0 0 1023.8 1024.0 0.0
22/12:30am 1.3 -0.6 0.4 94 0.3 CALM 0 0 0 0 1023.7 1023.9 0.0
22/12:00am 1.9 0.1 0.9 93 0.4 CALM 0 0 0 0 1023.7 1023.9 0.0
 
Date/Time
EST
Temp
°C
App
Temp
°C
Dew
Point
°C
Rel
Hum
%
Delta-T
°C
Wind Press
QNH
hPa
Press
MSL
hPa
Rain since
9am
mm
Dir  Spd
km/h
Gust
km/h
Spd
kts
Gust
kts
21/11:30pm 1.2 -0.8 0.0 92 0.5 CALM 0 0 0 0 1023.8 1024.0 0.0
21/11:00pm 2.6 0.6 0.2 84 0.9 CALM 0 0 0 0 1023.7 1023.9 0.0
21/10:30pm 3.1 0.4 0.2 81 1.1 NE 4 7 2 4 1023.7 1023.9 0.0
21/10:00pm 4.4 2.5 0.6 76 1.5 CALM 0 0 0 0 1023.6 1023.8 0.0
21/09:30pm 5.9 3.0 1.2 72 1.9 NW 6 9 3 5 1023.5 1023.7 0.0
21/09:00pm 7.4 4.2 2.9 73 1.9 WNW 9 13 5 7 1023.4 1023.6 0.0
21/08:30pm 7.5 4.6 2.4 70 2.2 WNW 7 11 4 6 1023.2 1023.3 0.0
21/08:00pm 7.2 3.7 1.5 67 2.4 NW 9 13 5 7 1023.1 1023.2 0.0
21/07:30pm 8.5 5.7 1.9 63 2.8 WNW 6 9 3 5 1022.8 1022.9 0.0
21/07:00pm 9.1 5.7 2.0 61 3.0 W 9 13 5 7 1022.6 1022.7 0.0
21/06:30pm 9.1 5.7 1.8 60 3.1 W 9 13 5 7 1022.4 1022.5 0.0
21/06:00pm 10.6 7.2 1.7 54 3.8 W 9 24 5 13 1022.1 1022.2 0.0
21/05:30pm 10.9 6.0 2.0 54 3.9 WSW 17 28 9 15 1021.3 1021.4 0.0
21/05:00pm 12.0 6.6 1.3 48 4.6 WSW 19 26 10 14 1020.9 1021.0 0.0
21/04:30pm 13.6 9.0 1.3 43 5.4 W 15 24 8 13 1020.5 1020.6 0.0
21/04:00pm 14.5 9.5 1.1 40 5.9 W 17 24 9 13 1020.1 1020.2 0.0
21/03:30pm 14.9 9.2 0.4 37 6.3 WSW 20 32 11 17 1020.0 1020.1 0.0
21/03:00pm 15.2 9.9 -0.9 33 6.8 W 17 30 9 16 1019.8 1019.8 0.0
21/02:30pm 15.2 8.9 -0.9 33 6.9 WSW 22 35 12 19 1019.6 1019.6 0.0
21/02:00pm 15.7 9.9 -0.1 34 6.9 WSW 20 32 11 17 1019.3 1019.4 0.0
21/01:30pm 15.7 9.1 -0.1 34 6.9 WSW 24 41 13 22 1019.2 1019.3 0.0
21/01:00pm 15.5 8.7 -2.0 30 7.3 WSW 24 39 13 21 1019.3 1019.4 0.0
21/12:30pm 15.6 9.2 -1.4 31 7.2 WSW 22 35 12 19 1019.8 1019.8 0.0
21/12:00pm 14.8 8.1 -1.3 33 6.8 WSW 24 37 13 20 1020.3 1020.4 0.0
21/11:30am 14.7 7.7 -0.6 35 6.5 WSW 26 39 14 21 1020.7 1020.8 0.0
21/11:00am 14.6 8.3 -0.7 35 6.5 SW 22 33 12 18 1021.0 1021.1 0.0
21/10:30am 12.9 6.6 -1.1 38 5.8 WSW 22 32 12 17 1021.3 1021.4 0.0
21/10:00am 12.6 6.9 0.4 43 5.2 WSW 20 33 11 18 1021.4 1021.5 0.0

Latest Capital City Observations: Canberra | Sydney | Melbourne | Brisbane | Adelaide | Perth | Hobart | Darwin

Other formats

Comma delimited format used in spreadsheet applications
http://www.bom.gov.au/fwo/IDQ60901/IDQ60901.94555.axf

JavaScript Object Notation format (JSON) in row-major order
http://www.bom.gov.au/fwo/IDQ60901/IDQ60901.94555.json

Data quality

Most of these data are generated automatically and are frequently updated. Quality checks on data are not normally performed. It is possible for incorrect values to appear. Refer to information at About Latest Weather Observations and please check the disclaimer before using these data.